createdAt,value
2022-12-28T00:02:19.263Z,3.70
2022-12-28T00:04:47.098Z,2.63
2022-12-28T00:07:16.194Z,3.43
2022-12-28T00:09:43.860Z,2.80
2022-12-28T00:12:11.515Z,2.80
2022-12-28T00:14:39.073Z,2.37
2022-12-28T00:17:06.977Z,3.23
2022-12-28T00:19:34.600Z,2.70
2022-12-28T00:22:02.091Z,2.83
2022-12-28T00:24:31.177Z,3.33
2022-12-28T00:26:58.936Z,2.83
2022-12-28T00:29:26.571Z,2.73
2022-12-28T00:31:54.242Z,2.53
2022-12-28T00:34:21.792Z,2.73
2022-12-28T00:37:09.269Z,2.50
2022-12-28T00:39:42.378Z,2.80
2022-12-28T00:42:10.804Z,2.87
2022-12-28T00:44:38.468Z,2.83
2022-12-28T00:47:06.210Z,3.33
2022-12-28T00:49:33.969Z,2.70
2022-12-28T00:52:01.518Z,2.47
2022-12-28T00:54:29.216Z,2.57
2022-12-28T00:56:58.052Z,3.30
2022-12-28T00:59:25.568Z,3.20
2022-12-28T01:01:53.228Z,2.83
2022-12-28T01:04:20.828Z,3.03
2022-12-28T01:06:48.419Z,3.67
2022-12-28T01:09:16.001Z,3.47
2022-12-28T01:11:43.540Z,3.17
2022-12-28T01:14:12.536Z,3.70
2022-12-28T01:16:40.432Z,3.07
2022-12-28T01:19:09.150Z,2.73
2022-12-28T01:21:37.247Z,2.90
2022-12-28T01:24:07.741Z,2.50
2022-12-28T01:26:35.525Z,3.00
2022-12-28T01:29:03.383Z,3.43
2022-12-28T01:31:32.925Z,2.80
2022-12-28T01:34:03.252Z,3.30
2022-12-28T01:36:32.777Z,3.37
2022-12-28T01:39:02.877Z,2.73
2022-12-28T01:41:31.880Z,3.33
2022-12-28T01:44:45.155Z,2.80
2022-12-28T01:47:19.485Z,3.00
2022-12-28T01:49:55.412Z,3.33
2022-12-28T01:52:29.082Z,3.70
2022-12-28T01:55:01.408Z,3.43
2022-12-28T01:57:32.682Z,3.90
2022-12-28T02:00:04.923Z,3.37
2022-12-28T02:02:35.777Z,3.80
2022-12-28T02:05:03.935Z,4.23
2022-12-28T02:07:41.142Z,4.40
2022-12-28T02:10:44.538Z,4.30
2022-12-28T02:13:00.156Z,3.63
2022-12-28T02:15:28.772Z,4.10
2022-12-28T02:18:01.693Z,3.90
2022-12-28T02:20:35.059Z,4.10
2022-12-28T02:23:28.517Z,3.83
2022-12-28T02:26:20.364Z,3.23
2022-12-28T02:29:15.034Z,4.00
2022-12-28T02:31:51.702Z,3.87
2022-12-28T02:34:26.988Z,3.60
2022-12-28T02:37:01.677Z,3.97
2022-12-28T02:39:35.107Z,4.10
2022-12-28T02:42:05.286Z,4.70
2022-12-28T02:44:53.646Z,3.60
2022-12-28T02:47:39.173Z,3.80
2022-12-28T02:50:09.529Z,4.67
2022-12-28T02:52:55.052Z,4.00
2022-12-28T02:55:52.302Z,4.57
2022-12-28T02:58:44.721Z,3.87
2022-12-28T03:01:25.266Z,4.67
2022-12-28T03:04:06.176Z,3.83
2022-12-28T03:07:00.737Z,4.53
2022-12-28T03:09:35.090Z,3.90
2022-12-28T03:12:09.691Z,4.30
2022-12-28T03:14:44.581Z,3.80
2022-12-28T03:17:33.256Z,4.80
2022-12-28T03:20:24.068Z,4.40
2022-12-28T03:23:11.488Z,4.90
2022-12-28T03:26:01.192Z,4.10
2022-12-28T03:28:50.004Z,4.00
2022-12-28T03:31:22.333Z,4.80
2022-12-28T03:34:06.692Z,3.30
2022-12-28T03:36:43.527Z,3.90
2022-12-28T03:39:17.615Z,4.20
2022-12-28T03:41:52.092Z,3.50
2022-12-28T03:44:24.652Z,4.20
2022-12-28T03:46:57.307Z,3.40
2022-12-28T03:49:29.454Z,3.20
2022-12-28T03:51:57.830Z,4.00
2022-12-28T03:54:26.254Z,3.90
2022-12-28T03:56:53.786Z,3.43
2022-12-28T03:59:21.450Z,4.10
2022-12-28T04:01:49.515Z,3.90
2022-12-28T04:04:17.188Z,4.13
2022-12-28T04:06:46.078Z,4.43
2022-12-28T04:09:15.771Z,3.63
2022-12-28T04:11:43.358Z,4.03
2022-12-28T04:14:11.475Z,3.80
2022-12-28T04:16:39.501Z,3.50
2022-12-28T04:19:07.085Z,3.63
2022-12-28T04:21:34.677Z,3.53
2022-12-28T04:24:04.068Z,3.70
2022-12-28T04:26:31.754Z,3.80
2022-12-28T04:29:02.005Z,3.00
2022-12-28T04:31:30.709Z,3.20
2022-12-28T04:33:59.513Z,3.50
2022-12-28T04:36:27.204Z,3.80
2022-12-28T04:38:55.157Z,3.53
2022-12-28T04:41:24.134Z,3.63
2022-12-28T04:43:52.369Z,4.40
2022-12-28T04:46:22.361Z,2.97
2022-12-28T04:48:49.879Z,3.43
2022-12-28T04:51:20.258Z,3.23
2022-12-28T04:53:48.449Z,3.77
2022-12-28T04:56:19.088Z,3.43
2022-12-28T04:58:48.979Z,3.70
2022-12-28T05:01:19.755Z,3.87
2022-12-28T05:03:55.092Z,3.40
2022-12-28T05:06:25.116Z,3.00
2022-12-28T05:08:52.770Z,3.27
2022-12-28T05:11:22.142Z,3.30
2022-12-28T05:13:51.560Z,3.13
2022-12-28T05:16:21.866Z,3.17
2022-12-28T05:18:50.278Z,3.20
2022-12-28T05:21:19.758Z,3.53
2022-12-28T05:23:48.937Z,3.77
2022-12-28T05:26:18.889Z,5.10
2022-12-28T05:28:46.858Z,3.40
2022-12-28T05:31:18.418Z,3.60
2022-12-28T05:33:47.787Z,3.30
2022-12-28T05:36:17.494Z,3.90
2022-12-28T05:38:45.757Z,2.57
2022-12-28T05:41:15.470Z,2.93
2022-12-28T05:43:44.151Z,2.80
2022-12-28T05:46:14.696Z,2.60
2022-12-28T05:48:44.136Z,2.30
2022-12-28T05:51:13.897Z,2.60
2022-12-28T05:53:42.192Z,2.80
2022-12-28T05:56:14.668Z,2.87
2022-12-28T05:58:43.201Z,2.43
2022-12-28T06:01:13.081Z,2.13
2022-12-28T06:03:41.535Z,2.90
2022-12-28T06:06:12.921Z,2.90
2022-12-28T06:08:44.790Z,2.73
2022-12-28T06:11:14.816Z,2.80
2022-12-28T06:13:42.561Z,3.30
2022-12-28T06:16:12.520Z,4.90
2022-12-28T06:18:40.284Z,5.23
2022-12-28T06:21:11.574Z,3.00
2022-12-28T06:23:39.447Z,2.70
2022-12-28T06:26:08.791Z,3.17
2022-12-28T06:28:37.891Z,3.10
2022-12-28T06:31:07.301Z,2.53
2022-12-28T06:33:35.628Z,2.47
2022-12-28T06:36:03.518Z,4.00
2022-12-28T06:38:34.369Z,2.97
2022-12-28T06:41:14.110Z,2.50
2022-12-28T06:43:44.045Z,2.80
2022-12-28T06:46:12.498Z,2.87
2022-12-28T06:48:42.893Z,2.17
2022-12-28T06:51:14.124Z,2.90
2022-12-28T06:53:44.875Z,2.63
2022-12-28T06:56:14.826Z,2.13
2022-12-28T06:58:42.761Z,2.27
2022-12-28T07:01:13.603Z,2.57
2022-12-28T07:03:41.721Z,2.30
2022-12-28T07:06:10.075Z,2.77
2022-12-28T07:08:38.283Z,3.03
2022-12-28T07:11:09.696Z,2.07
2022-12-28T07:13:37.669Z,2.60
2022-12-28T07:16:07.646Z,2.47
2022-12-28T07:18:35.408Z,2.03
2022-12-28T07:21:05.545Z,2.20
2022-12-28T07:23:35.617Z,2.50
2022-12-28T07:26:09.637Z,2.67
2022-12-28T07:28:38.369Z,2.30
2022-12-28T07:31:08.166Z,2.33
2022-12-28T07:33:37.291Z,2.63
2022-12-28T07:36:06.603Z,2.27
2022-12-28T07:38:36.062Z,2.10
2022-12-28T07:41:04.946Z,2.27
2022-12-28T07:43:34.533Z,2.43
2022-12-28T07:46:03.540Z,2.10
2022-12-28T07:48:32.383Z,2.30
2022-12-28T07:51:07.812Z,2.60
2022-12-28T07:53:35.749Z,2.50
2022-12-28T07:56:03.915Z,1.73
2022-12-28T07:58:31.518Z,1.73
2022-12-28T08:01:06.944Z,2.47
2022-12-28T08:03:35.291Z,2.27
2022-12-28T08:06:05.185Z,2.10
2022-12-28T08:08:36.002Z,2.00
2022-12-28T08:11:05.506Z,1.73
2022-12-28T08:13:35.004Z,1.97
2022-12-28T08:16:03.405Z,2.63
2022-12-28T08:18:32.978Z,1.87
2022-12-28T08:21:05.715Z,2.87
2022-12-28T08:23:33.947Z,2.43
2022-12-28T08:26:06.865Z,1.87
2022-12-28T08:28:34.699Z,2.00
2022-12-28T08:31:07.435Z,2.10
2022-12-28T08:33:36.631Z,2.30
2022-12-28T08:36:04.351Z,1.60
2022-12-28T08:38:31.994Z,1.90
2022-12-28T08:41:01.023Z,1.80
2022-12-28T08:43:34.081Z,2.03
2022-12-28T08:46:03.623Z,1.80
2022-12-28T08:48:33.065Z,1.53
2022-12-28T08:51:05.621Z,1.90
2022-12-28T08:53:33.534Z,1.97
2022-12-28T08:56:06.792Z,1.60
2022-12-28T08:58:35.198Z,1.80
2022-12-28T09:01:07.427Z,1.53
2022-12-28T09:03:36.745Z,1.60
2022-12-28T09:06:07.174Z,1.50
2022-12-28T09:08:35.151Z,1.70
2022-12-28T09:11:05.401Z,1.40
2022-12-28T09:13:34.024Z,1.23
2022-12-28T09:16:04.022Z,1.60
2022-12-28T09:18:31.935Z,1.40
2022-12-28T09:21:09.861Z,1.50
2022-12-28T09:23:38.771Z,1.30
2022-12-28T09:26:08.020Z,1.40
2022-12-28T09:28:37.121Z,3.23
2022-12-28T09:31:05.749Z,2.40
2022-12-28T09:34:32.075Z,1.67
2022-12-28T09:36:43.084Z,2.10
2022-12-28T09:39:14.036Z,1.70
2022-12-28T09:41:48.132Z,1.70
2022-12-28T09:44:33.103Z,2.30
2022-12-28T09:47:07.152Z,1.40
2022-12-28T09:49:41.875Z,1.60
2022-12-28T09:52:27.490Z,2.17
2022-12-28T09:54:56.044Z,1.80
2022-12-28T09:57:25.582Z,1.70
2022-12-28T09:59:54.139Z,1.50
2022-12-28T10:02:27.468Z,1.57
2022-12-28T10:04:55.433Z,1.80
2022-12-28T10:07:28.764Z,1.90
2022-12-28T10:09:56.451Z,1.53
2022-12-28T10:15:09.292Z,2.20
2022-12-28T10:17:36.943Z,2.13
2022-12-28T10:20:07.983Z,1.30
2022-12-28T10:22:49.878Z,1.60
2022-12-28T10:25:20.517Z,1.97
2022-12-28T10:27:48.687Z,1.57
2022-12-28T10:30:18.748Z,1.80
2022-12-28T10:32:51.814Z,1.60
2022-12-28T10:35:25.551Z,1.50
2022-12-28T10:38:00.740Z,2.03
2022-12-28T10:40:31.469Z,1.80
2022-12-28T10:43:02.096Z,1.90
2022-12-28T10:45:37.355Z,2.00
2022-12-28T10:48:11.018Z,1.77
2022-12-28T10:50:48.714Z,1.30
2022-12-28T10:53:26.827Z,1.70
2022-12-28T10:56:21.841Z,1.40
2022-12-28T10:58:53.781Z,2.10
2022-12-28T11:01:26.947Z,1.70
2022-12-28T11:04:07.370Z,2.37
2022-12-28T11:06:36.715Z,1.70
2022-12-28T11:09:15.498Z,1.77
2022-12-28T11:11:44.487Z,1.60
2022-12-28T11:14:18.632Z,1.60
2022-12-28T11:16:46.291Z,1.90
2022-12-28T11:19:14.322Z,1.67
2022-12-28T11:21:47.403Z,1.70
2022-12-28T11:24:18.529Z,1.77
2022-12-28T11:26:48.914Z,1.37
2022-12-28T11:29:18.700Z,1.70
2022-12-28T11:31:50.549Z,1.40
2022-12-28T11:34:24.293Z,2.43
2022-12-28T11:36:52.573Z,2.30
2022-12-28T11:39:46.228Z,2.60
2022-12-28T11:42:41.819Z,3.83
2022-12-28T11:45:14.312Z,2.03
2022-12-28T11:47:42.032Z,2.33
2022-12-28T11:50:42.174Z,1.80
2022-12-28T11:53:43.892Z,1.60
2022-12-28T11:56:14.061Z,2.53
2022-12-28T11:58:48.552Z,1.50
2022-12-28T12:01:44.428Z,1.60
2022-12-28T12:04:34.245Z,1.40
2022-12-28T12:07:31.581Z,1.60
2022-12-28T12:10:31.661Z,1.90
2022-12-28T12:13:06.895Z,1.50
2022-12-28T12:15:41.387Z,1.70
2022-12-28T12:18:19.190Z,1.63
2022-12-28T12:20:58.606Z,1.67
2022-12-28T12:23:35.203Z,1.90
2022-12-28T12:26:21.029Z,1.60
2022-12-28T12:28:52.705Z,1.70
2022-12-28T12:31:29.613Z,1.90
2022-12-28T12:34:03.559Z,1.90
2022-12-28T12:36:52.993Z,1.87
2022-12-28T12:39:46.826Z,1.87
2022-12-28T12:42:27.360Z,1.70
2022-12-28T12:45:00.267Z,1.70
2022-12-28T12:47:58.745Z,1.50
2022-12-28T12:50:57.581Z,1.70
2022-12-28T12:53:43.130Z,1.77
2022-12-28T12:56:30.464Z,1.70
2022-12-28T12:59:18.526Z,1.70
2022-12-28T13:01:54.924Z,1.93
2022-12-28T13:04:25.441Z,1.77
2022-12-28T13:06:59.992Z,1.60
2022-12-28T13:09:31.867Z,1.80
2022-12-28T13:12:02.796Z,2.77
2022-12-28T13:14:30.997Z,1.77
2022-12-28T13:17:01.711Z,1.57
2022-12-28T13:19:30.748Z,1.30
2022-12-28T13:21:59.610Z,1.40
2022-12-28T13:24:35.980Z,1.70
2022-12-28T13:27:19.771Z,1.53
2022-12-28T13:29:55.041Z,1.70
2022-12-28T13:32:36.043Z,1.40
2022-12-28T13:35:17.959Z,1.77
2022-12-28T13:37:59.757Z,1.67
2022-12-28T13:40:31.333Z,1.20
2022-12-28T13:43:19.144Z,1.50
2022-12-28T13:45:52.205Z,1.50
2022-12-28T13:48:24.555Z,1.90
2022-12-28T13:50:53.391Z,1.43
2022-12-28T13:53:26.335Z,1.30
2022-12-28T13:55:59.389Z,1.70
2022-12-28T13:58:32.878Z,1.40
2022-12-28T14:01:04.374Z,1.50
2022-12-28T14:03:41.430Z,1.30
2022-12-28T14:06:16.230Z,2.07
2022-12-28T14:08:46.773Z,1.40
2022-12-28T14:11:16.017Z,1.70
2022-12-28T14:13:44.036Z,1.70
2022-12-28T14:16:12.168Z,1.37
2022-12-28T14:18:47.591Z,1.67
2022-12-28T14:21:18.061Z,1.70
2022-12-28T14:23:45.891Z,1.70
2022-12-28T14:26:21.688Z,1.43
2022-12-28T14:28:53.726Z,1.73
2022-12-28T14:31:27.813Z,1.40
2022-12-28T14:33:58.628Z,1.30
2022-12-28T14:36:30.861Z,1.40
2022-12-28T14:41:49.873Z,1.73
2022-12-28T14:44:27.529Z,1.50
2022-12-28T14:47:00.035Z,1.97
2022-12-28T14:49:38.106Z,2.03
2022-12-28T14:52:42.908Z,1.63
2022-12-28T14:55:35.544Z,1.93
2022-12-28T14:58:07.254Z,2.27
2022-12-28T15:00:25.117Z,1.70
2022-12-28T15:00:36.363Z,1.90
2022-12-28T15:03:19.855Z,1.43
2022-12-28T15:05:50.914Z,1.60
2022-12-28T15:08:18.832Z,1.70
2022-12-28T15:10:52.178Z,1.63
2022-12-28T15:13:21.000Z,1.77
2022-12-28T15:15:56.480Z,2.20
2022-12-28T15:18:24.479Z,1.80
2022-12-28T15:20:54.655Z,2.10
2022-12-28T15:23:22.886Z,1.50
2022-12-28T15:25:51.198Z,2.40
2022-12-28T15:28:19.254Z,2.00
2022-12-28T15:30:47.303Z,1.77
2022-12-28T15:33:14.958Z,2.20
2022-12-28T15:35:43.247Z,1.50
2022-12-28T15:38:15.091Z,1.50
2022-12-28T15:40:42.845Z,1.97
2022-12-28T15:43:10.466Z,2.23
2022-12-28T15:45:38.440Z,2.00
2022-12-28T15:48:06.690Z,2.13
2022-12-28T15:50:35.172Z,1.50
2022-12-28T15:53:02.694Z,1.50
2022-12-28T15:55:36.383Z,1.53
2022-12-28T15:58:04.120Z,1.90
2022-12-28T16:00:33.908Z,1.70
2022-12-28T16:03:01.947Z,1.40
2022-12-28T16:05:29.867Z,1.30
2022-12-28T16:07:57.679Z,1.20
2022-12-28T16:10:27.355Z,1.60
2022-12-28T16:12:56.737Z,1.40
2022-12-28T16:15:24.302Z,1.27
2022-12-28T16:17:57.249Z,1.17
2022-12-28T16:20:25.649Z,1.50
2022-12-28T16:48:04.551Z,1.60
2022-12-28T16:50:38.180Z,2.60
2022-12-28T16:53:12.921Z,3.13
2022-12-28T16:55:45.382Z,3.90
2022-12-28T16:58:18.124Z,2.40
2022-12-28T17:00:51.089Z,2.00
2022-12-28T17:03:29.096Z,2.00
2022-12-28T17:05:59.034Z,1.80
2022-12-28T17:08:42.708Z,1.87
2022-12-28T17:11:15.912Z,1.70
2022-12-28T17:13:46.652Z,1.70
2022-12-28T17:16:18.349Z,1.40
2022-12-28T17:18:55.887Z,1.53
2022-12-28T17:21:35.999Z,1.50
2022-12-28T17:24:10.207Z,1.60
2022-12-28T17:26:42.674Z,1.10
2022-12-28T17:29:12.847Z,1.60
2022-12-28T17:31:52.488Z,1.53
2022-12-28T17:34:29.842Z,1.77
2022-12-28T17:37:04.981Z,1.97
2022-12-28T17:39:40.540Z,1.70
2022-12-28T17:42:13.547Z,2.20
2022-12-28T17:44:46.121Z,1.60
2022-12-28T17:47:19.556Z,1.30
2022-12-28T17:49:59.406Z,2.10
2022-12-28T17:52:29.616Z,1.97
2022-12-28T17:55:03.523Z,1.43
2022-12-28T17:57:39.850Z,1.53
2022-12-28T18:00:11.702Z,1.53
2022-12-28T18:02:47.676Z,1.80
2022-12-28T18:05:19.122Z,1.93
2022-12-28T18:07:49.179Z,1.57
2022-12-28T18:10:18.337Z,1.33
2022-12-28T18:12:49.717Z,1.80
2022-12-28T18:15:27.343Z,1.97
2022-12-28T18:18:04.762Z,1.53
2022-12-28T18:20:42.832Z,1.53
2022-12-28T18:23:15.287Z,1.80
2022-12-28T18:25:46.180Z,1.90
2022-12-28T18:28:15.529Z,1.80
2022-12-28T18:30:46.038Z,1.93
2022-12-28T18:33:15.164Z,1.63
2022-12-28T18:35:48.898Z,1.40
2022-12-28T18:38:35.364Z,1.90
2022-12-28T18:41:05.439Z,1.67
2022-12-28T18:43:37.038Z,1.60
2022-12-28T18:46:19.486Z,1.93
2022-12-28T18:48:49.906Z,1.40
2022-12-28T18:51:24.780Z,1.60
2022-12-28T18:53:54.951Z,1.40
2022-12-28T18:56:27.159Z,1.90
2022-12-28T18:58:59.235Z,1.90
2022-12-28T19:02:05.184Z,1.60
2022-12-28T19:04:24.928Z,1.70
2022-12-28T19:06:56.147Z,1.50
2022-12-28T19:09:30.229Z,1.50
2022-12-28T19:12:00.343Z,1.67
2022-12-28T19:14:30.293Z,1.50
2022-12-28T19:17:05.526Z,1.87
2022-12-28T19:19:36.428Z,1.70
2022-12-28T19:22:22.448Z,1.60
2022-12-28T19:24:51.456Z,2.00
2022-12-28T19:27:24.628Z,1.40
2022-12-28T19:29:56.069Z,2.60
2022-12-28T19:32:26.546Z,1.63
2022-12-28T19:34:57.434Z,2.00
2022-12-28T19:37:29.862Z,1.63
2022-12-28T19:40:01.038Z,2.33
2022-12-28T19:42:30.113Z,2.07
2022-12-28T19:45:04.869Z,2.00
2022-12-28T19:47:39.257Z,1.70
2022-12-28T19:50:10.155Z,1.80
2022-12-28T19:52:39.762Z,1.57
2022-12-28T19:55:07.844Z,1.73
2022-12-28T19:57:37.297Z,1.53
2022-12-28T20:00:06.178Z,1.73
2022-12-28T20:02:34.051Z,2.60
2022-12-28T20:05:02.164Z,1.63
2022-12-28T20:07:29.993Z,1.60
2022-12-28T20:10:03.134Z,1.40
2022-12-28T20:12:31.077Z,1.73
2022-12-28T20:14:58.801Z,1.70
2022-12-28T20:17:26.397Z,2.00
2022-12-28T20:19:56.674Z,1.50
2022-12-28T20:22:24.402Z,1.60
2022-12-28T20:24:52.376Z,1.67
2022-12-28T20:27:25.842Z,1.60
2022-12-28T20:29:54.574Z,1.50
2022-12-28T20:32:22.211Z,1.70
2022-12-28T20:34:50.054Z,1.73
2022-12-28T20:37:17.750Z,1.77
2022-12-28T20:39:45.427Z,1.40
2022-12-28T20:42:32.444Z,1.57
2022-12-28T20:45:01.407Z,1.83
2022-12-28T20:47:28.953Z,1.50
2022-12-28T20:49:56.947Z,1.60
2022-12-28T20:52:24.629Z,1.80
2022-12-28T20:54:52.209Z,1.80
2022-12-28T20:57:20.039Z,2.00
2022-12-28T20:59:47.611Z,2.43
2022-12-28T21:02:17.082Z,1.47
2022-12-28T21:04:44.714Z,2.10
2022-12-28T21:07:12.458Z,1.80
2022-12-28T21:09:41.144Z,1.90
2022-12-28T21:12:08.911Z,1.50
2022-12-28T21:14:36.461Z,1.80
2022-12-28T21:17:04.115Z,1.83
2022-12-28T21:19:33.039Z,1.40
2022-12-28T21:22:00.778Z,1.60
2022-12-28T21:24:28.451Z,1.57
2022-12-28T21:26:56.097Z,1.90
2022-12-28T21:29:26.007Z,1.77
2022-12-28T21:31:54.195Z,1.70
2022-12-28T21:34:22.427Z,1.63
2022-12-28T21:36:54.060Z,2.27
2022-12-28T21:39:22.995Z,1.77
2022-12-28T21:41:50.865Z,1.80
2022-12-28T21:44:21.918Z,1.80
2022-12-28T21:46:51.086Z,1.60
2022-12-28T21:49:19.358Z,1.60
2022-12-28T21:51:47.103Z,1.57
2022-12-28T21:54:18.343Z,1.87
2022-12-28T21:56:48.010Z,1.40
2022-12-28T21:59:15.850Z,2.27
2022-12-28T22:02:01.469Z,1.57
2022-12-28T22:04:47.415Z,1.70
2022-12-28T22:07:24.303Z,1.80
2022-12-28T22:10:10.852Z,2.00
2022-12-28T22:12:38.981Z,1.60
2022-12-28T22:15:27.614Z,1.70
2022-12-28T22:18:12.774Z,1.70
2022-12-28T22:20:48.366Z,1.67
2022-12-28T22:23:18.391Z,1.57
2022-12-28T22:25:49.631Z,1.80
2022-12-28T22:28:18.511Z,1.70
2022-12-28T22:30:47.633Z,2.43
2022-12-28T22:33:16.407Z,1.63
2022-12-28T22:35:47.927Z,1.50
2022-12-28T22:38:16.864Z,1.60
2022-12-28T22:40:45.595Z,2.07
2022-12-28T22:43:15.819Z,1.60
2022-12-28T22:46:17.853Z,1.90
2022-12-28T22:48:47.332Z,1.80
2022-12-28T22:51:18.277Z,1.40
2022-12-28T22:53:48.262Z,1.90
2022-12-28T22:56:21.301Z,1.80
2022-12-28T22:58:52.492Z,1.80
2022-12-28T23:01:21.998Z,1.77
2022-12-28T23:03:52.214Z,2.10
2022-12-28T23:06:22.029Z,1.90
2022-12-28T23:08:50.948Z,2.00
2022-12-28T23:11:37.131Z,1.70
2022-12-28T23:14:26.516Z,1.80
2022-12-28T23:16:55.230Z,2.00
2022-12-28T23:19:41.058Z,1.90
2022-12-28T23:22:27.032Z,1.63
2022-12-28T23:25:13.142Z,1.50
2022-12-28T23:27:43.753Z,3.13
2022-12-28T23:30:17.757Z,1.80
2022-12-28T23:32:46.110Z,1.70
2022-12-28T23:35:15.363Z,1.70
2022-12-28T23:37:45.928Z,1.43
2022-12-28T23:40:18.817Z,1.90
2022-12-28T23:42:48.152Z,1.80
2022-12-28T23:45:19.580Z,1.90
2022-12-28T23:47:48.391Z,1.57
2022-12-28T23:50:17.805Z,1.60
2022-12-28T23:52:45.729Z,1.43
2022-12-28T23:55:34.141Z,2.00
2022-12-28T23:58:01.716Z,1.70
